Time;durP1;ratioP1;P1;durP2;ratioP2;P2;SDS_P1;SDS_P2;PMS_P1;PMS_P2;Temp;Humidity;BMP_temperature;BMP_pressure;BME280_temperature;BME280_humidity;BME280_pressure;Samples;Min_cycle;Max_cycle;Signal;HPM_P1;HPM_P2
2022/06/29 00:01:56;;;;;;;6.60;6.10;;;18.60;99.90;;;;;;4988408;28;20694;-61
2022/06/29 00:04:21;;;;;;;6.23;5.73;;;18.60;99.90;;;;;;4980252;28;20270;-60
2022/06/29 00:06:47;;;;;;;5.70;5.30;;;18.60;99.90;;;;;;4987418;28;20219;-61
2022/06/29 00:09:13;;;;;;;6.30;5.70;;;18.60;99.90;;;;;;4987759;28;20188;-61
2022/06/29 00:11:38;;;;;;;6.30;5.80;;;18.60;99.90;;;;;;4978843;28;20216;-61
2022/06/29 00:14:04;;;;;;;6.17;5.67;;;18.60;99.90;;;;;;4975828;28;20188;-60
2022/06/29 00:16:29;;;;;;;5.77;5.37;;;18.60;99.90;;;;;;4993870;28;20746;-61
2022/06/29 00:18:55;;;;;;;7.00;5.70;;;18.50;99.90;;;;;;4982423;28;20581;-60
2022/06/29 00:21:20;;;;;;;6.00;5.60;;;18.50;99.90;;;;;;4982071;28;20234;-61
2022/06/29 00:23:46;;;;;;;6.03;5.63;;;18.40;99.90;;;;;;4987832;28;20196;-61
2022/06/29 00:26:12;;;;;;;5.53;5.13;;;18.30;99.90;;;;;;4993904;28;20239;-61
2022/06/29 00:28:37;;;;;;;8.00;6.70;;;18.30;99.90;;;;;;4992982;28;20183;-61
2022/06/29 00:31:03;;;;;;;6.53;6.00;;;18.20;99.90;;;;;;4993889;28;20581;-60
2022/06/29 00:33:28;;;;;;;6.03;5.63;;;18.20;99.90;;;;;;4983356;28;20191;-60
2022/06/29 00:35:54;;;;;;;6.20;5.80;;;18.10;99.90;;;;;;4998878;28;20238;-60
2022/06/29 00:38:20;;;;;;;5.87;5.33;;;18.20;99.90;;;;;;4991789;28;20191;-61
2022/06/29 00:40:45;;;;;;;6.20;5.80;;;18.20;99.90;;;;;;4987541;28;20200;-60
2022/06/29 00:43:11;;;;;;;5.90;5.40;;;18.10;99.90;;;;;;4988116;28;20203;-61
2022/06/29 00:45:37;;;;;;;6.30;5.80;;;18.30;99.90;;;;;;4993854;28;20201;-61
2022/06/29 00:48:03;;;;;;;6.07;5.57;;;18.10;99.90;;;;;;4987859;28;20184;-61
2022/06/29 00:50:32;;;;;;;7.00;6.30;;;18.10;99.90;;;;;;4993848;28;20243;-62
2022/06/29 00:53:03;;;;;;;6.35;5.95;;;18.10;99.90;;;;;;4993230;28;20205;-60
2022/06/29 00:55:31;;;;;;;6.65;6.15;;;18.00;99.90;;;;;;4992636;28;20191;-60
2022/06/29 00:57:59;;;;;;;6.32;5.82;;;18.00;99.90;;;;;;4983759;28;20204;-60
2022/06/29 01:00:24;;;;;;;6.35;5.85;;;18.00;99.90;;;;;;4990263;28;20222;-61
2022/06/29 01:02:50;;;;;;;5.90;5.50;;;17.90;99.90;;;;;;4980357;28;20200;-60
2022/06/29 01:05:16;;;;;;;6.20;5.80;;;17.90;99.90;;;;;;4991310;28;20551;-61
2022/06/29 01:07:42;;;;;;;7.20;6.60;;;17.80;99.90;;;;;;4992910;28;20294;-61
2022/06/29 01:10:08;;;;;;;6.13;5.73;;;17.90;99.90;;;;;;4993523;28;20191;-61
2022/06/29 01:12:33;;;;;;;6.30;5.90;;;17.80;99.90;;;;;;4990704;28;20477;-61
2022/06/29 01:14:59;;;;;;;5.97;5.57;;;17.80;99.90;;;;;;4993459;28;20689;-61
2022/06/29 01:17:25;;;;;;;6.53;6.10;;;17.70;99.90;;;;;;4992239;28;20183;-60
2022/06/29 01:19:51;;;;;;;6.17;5.57;;;17.80;99.90;;;;;;4980868;28;20203;-61
2022/06/29 01:22:19;;;;;;;5.82;5.43;;;17.90;99.90;;;;;;4985489;28;20669;-61
2022/06/29 01:24:46;;;;;;;6.53;6.03;;;17.90;99.90;;;;;;4991995;28;20732;-60
2022/06/29 01:27:13;;;;;;;6.38;5.88;;;17.80;99.90;;;;;;4988226;28;20215;-61
2022/06/29 01:29:39;;;;;;;6.75;6.18;;;17.80;99.90;;;;;;4991871;28;20669;-61
2022/06/29 01:32:06;;;;;;;6.03;5.60;;;17.80;99.90;;;;;;4988053;28;20227;-60
2022/06/29 01:34:32;;;;;;;6.20;5.60;;;17.80;99.90;;;;;;4991733;28;20526;-62
2022/06/29 01:36:59;;;;;;;6.85;6.35;;;17.70;99.90;;;;;;4986499;28;20262;-60
2022/06/29 01:39:25;;;;;;;7.57;6.05;;;17.70;99.90;;;;;;4991836;28;20193;-61
2022/06/29 01:41:51;;;;;;;6.05;5.65;;;17.70;99.90;;;;;;4990072;28;20216;-61
2022/06/29 01:44:17;;;;;;;6.30;5.80;;;17.70;99.90;;;;;;4983452;28;20238;-61
2022/06/29 01:46:42;;;;;;;6.77;6.30;;;17.70;99.90;;;;;;4984676;28;20257;-60
2022/06/29 01:49:08;;;;;;;6.97;6.20;;;17.70;99.90;;;;;;4988999;28;20258;-60
2022/06/29 01:51:34;;;;;;;6.70;6.10;;;17.50;99.90;;;;;;4983591;28;20207;-61
2022/06/29 01:54:00;;;;;;;6.50;6.00;;;17.70;99.90;;;;;;4981731;28;20283;-60
2022/06/29 01:56:25;;;;;;;6.95;6.38;;;17.80;99.90;;;;;;4992136;28;20654;-61
2022/06/29 01:58:51;;;;;;;6.57;5.97;;;17.70;99.90;;;;;;4979955;28;20192;-61
2022/06/29 02:01:17;;;;;;;6.70;6.20;;;17.60;99.90;;;;;;4983888;28;20844;-61
2022/06/29 02:03:42;;;;;;;6.73;6.23;;;17.50;99.90;;;;;;4984539;28;20195;-60
2022/06/29 02:06:08;;;;;;;6.87;6.30;;;17.60;99.90;;;;;;4988924;28;20299;-60
2022/06/29 02:08:34;;;;;;;7.47;6.83;;;17.50;99.90;;;;;;4989686;28;20199;-61
2022/06/29 02:11:00;;;;;;;6.97;6.47;;;17.80;99.90;;;;;;4987556;28;20209;-60
2022/06/29 02:13:26;;;;;;;6.32;5.82;;;17.60;99.90;;;;;;4987161;28;20215;-61
2022/06/29 02:15:51;;;;;;;7.57;6.97;;;17.50;99.90;;;;;;4988830;28;20616;-61
2022/06/29 02:18:17;;;;;;;6.80;6.20;;;17.50;99.90;;;;;;4987628;28;20552;-60
2022/06/29 02:20:43;;;;;;;7.70;6.80;;;17.30;99.90;;;;;;4987637;28;20227;-61
2022/06/29 02:23:08;;;;;;;7.23;6.63;;;17.50;99.90;;;;;;4987926;28;20183;-61
2022/06/29 02:25:34;;;;;;;6.80;6.27;;;17.40;99.90;;;;;;4990594;28;20184;-61
2022/06/29 02:28:00;;;;;;;6.70;6.13;;;17.50;99.90;;;;;;4985195;28;20222;-61
2022/06/29 02:35:54;;;;;;;6.90;6.30;;;17.40;99.90;;;;;;4988702;28;20238;-60
2022/06/29 02:38:20;;;;;;;6.87;6.30;;;17.50;99.90;;;;;;4987436;28;20180;-61
2022/06/29 02:40:45;;;;;;;6.53;6.07;;;17.50;99.90;;;;;;4988879;28;20262;-62
2022/06/29 02:43:11;;;;;;;7.40;6.70;;;17.60;99.90;;;;;;4979151;28;20555;-62
2022/06/29 02:45:36;;;;;;;6.63;6.13;;;17.70;99.90;;;;;;4987490;28;20216;-61
2022/06/29 02:48:02;;;;;;;7.17;6.67;;;17.80;99.90;;;;;;4983896;28;20278;-61
2022/06/29 02:50:28;;;;;;;7.00;6.40;;;17.70;99.90;;;;;;4989088;28;20699;-62
2022/06/29 02:52:54;;;;;;;6.30;5.90;;;17.50;99.90;;;;;;4986965;28;20199;-62
2022/06/29 02:55:19;;;;;;;7.27;6.43;;;17.80;99.90;;;;;;4987688;28;20505;-61
2022/06/29 02:57:45;;;;;;;7.10;6.60;;;17.50;99.90;;;;;;4987160;28;20258;-60
2022/06/29 03:00:12;;;;;;;6.70;6.10;;;17.70;99.90;;;;;;4987473;28;20662;-62
2022/06/29 03:02:38;;;;;;;7.15;6.65;;;17.50;99.90;;;;;;4986769;28;20178;-61
2022/06/29 03:05:04;;;;;;;6.97;6.47;;;17.60;99.90;;;;;;4986713;28;20183;-61
2022/06/29 03:07:29;;;;;;;7.40;6.90;;;17.50;99.90;;;;;;4989520;28;20234;-60
2022/06/29 03:09:55;;;;;;;7.07;6.53;;;17.30;99.90;;;;;;4989615;28;20537;-61
2022/06/29 03:12:20;;;;;;;7.70;6.50;;;17.20;99.90;;;;;;4980105;28;20215;-61
2022/06/29 03:14:46;;;;;;;6.37;5.87;;;17.40;99.90;;;;;;4988622;28;20186;-61
2022/06/29 03:17:12;;;;;;;6.20;5.80;;;17.40;99.90;;;;;;4987559;28;20289;-62
2022/06/29 03:19:37;;;;;;;6.53;6.03;;;17.40;99.90;;;;;;4984910;28;20203;-61
2022/06/29 03:22:03;;;;;;;7.13;6.63;;;17.20;99.90;;;;;;4984456;28;20247;-61
2022/06/29 03:24:28;;;;;;;7.23;6.73;;;17.60;99.90;;;;;;4993796;28;20187;-60
2022/06/29 03:26:54;;;;;;;7.30;6.70;;;17.50;99.90;;;;;;4989832;28;20571;-60
2022/06/29 03:29:20;;;;;;;7.30;6.63;;;17.50;99.90;;;;;;4988640;28;20200;-61
2022/06/29 03:31:45;;;;;;;7.67;6.97;;;17.40;99.90;;;;;;4988835;28;20207;-60
2022/06/29 03:34:11;;;;;;;7.70;7.03;;;17.40;99.90;;;;;;4989214;28;20605;-61
2022/06/29 03:36:36;;;;;;;6.70;6.30;;;17.30;99.90;;;;;;4991820;28;20334;-61
2022/06/29 03:39:02;;;;;;;7.27;6.57;;;17.20;99.90;;;;;;4993083;28;20200;-62
2022/06/29 03:41:28;;;;;;;7.50;6.90;;;17.50;99.90;;;;;;4986881;28;20294;-61
2022/06/29 03:43:53;;;;;;;8.20;7.50;;;17.30;99.90;;;;;;4985992;28;20210;-60
2022/06/29 03:46:19;;;;;;;7.30;6.80;;;17.30;99.90;;;;;;4991634;28;20210;-60
2022/06/29 03:48:44;;;;;;;7.70;7.03;;;17.20;99.90;;;;;;4991403;28;20190;-60
2022/06/29 03:51:10;;;;;;;7.93;7.33;;;17.30;99.90;;;;;;4989804;28;20208;-60
2022/06/29 03:53:36;;;;;;;7.70;6.70;;;17.20;99.90;;;;;;4990143;28;20568;-60
2022/06/29 03:56:01;;;;;;;7.40;6.87;;;17.40;99.90;;;;;;4984444;28;20195;-60
2022/06/29 03:58:27;;;;;;;7.57;6.77;;;17.60;99.90;;;;;;4989372;28;20187;-60
2022/06/29 04:00:52;;;;;;;7.47;6.87;;;17.40;99.90;;;;;;4987310;28;20294;-61
2022/06/29 04:03:18;;;;;;;7.57;6.93;;;17.40;99.90;;;;;;4985754;28;20188;-60
2022/06/29 04:05:43;;;;;;;6.77;6.27;;;17.70;99.90;;;;;;4991818;28;20183;-61
2022/06/29 04:08:10;;;;;;;7.47;6.87;;;17.30;99.90;;;;;;4994049;28;20195;-61
2022/06/29 04:10:36;;;;;;;7.22;6.72;;;17.40;99.90;;;;;;4993074;28;20207;-61
2022/06/29 04:13:02;;;;;;;7.93;6.97;;;17.50;99.90;;;;;;4983733;28;20234;-62
2022/06/29 04:15:27;;;;;;;6.83;6.33;;;17.50;99.90;;;;;;4993951;28;20187;-67
2022/06/29 04:17:53;;;;;;;7.60;7.10;;;17.50;99.90;;;;;;4990124;28;20234;-65
2022/06/29 04:23:03;;;;;;;7.43;6.93;;;17.50;99.90;;;;;;4990662;28;20558;-63
2022/06/29 04:25:29;;;;;;;7.40;6.70;;;17.70;99.90;;;;;;4990482;28;20274;-63
2022/06/29 04:27:55;;;;;;;7.13;6.50;;;17.70;99.90;;;;;;4986861;28;20682;-63
2022/06/29 04:30:21;;;;;;;6.97;6.47;;;17.70;99.90;;;;;;4992882;28;20912;-63
2022/06/29 04:32:46;;;;;;;9.53;6.93;;;18.00;99.90;;;;;;4989715;28;20944;-63
2022/06/29 04:35:12;;;;;;;7.30;6.67;;;17.80;99.90;;;;;;4992178;28;20442;-65
2022/06/29 04:37:38;;;;;;;7.30;6.70;;;17.90;99.90;;;;;;4986928;28;20191;-62
2022/06/29 04:40:04;;;;;;;7.80;7.17;;;17.90;99.90;;;;;;4990887;28;20210;-62
2022/06/29 04:42:30;;;;;;;7.35;6.75;;;17.90;99.90;;;;;;4989104;28;20195;-62
2022/06/29 04:44:56;;;;;;;8.80;7.93;;;18.00;99.90;;;;;;4990230;28;20283;-62
2022/06/29 04:47:21;;;;;;;6.90;6.40;;;18.10;99.90;;;;;;4984430;28;20697;-62
2022/06/29 04:49:47;;;;;;;7.23;6.63;;;18.10;99.90;;;;;;4989045;28;20196;-62
2022/06/29 04:52:12;;;;;;;7.50;6.83;;;18.10;99.90;;;;;;4992873;28;20287;-62
2022/06/29 04:54:38;;;;;;;7.77;7.17;;;18.20;99.90;;;;;;4992466;28;20198;-62
2022/06/29 04:57:06;;;;;;;7.40;6.82;;;18.20;99.90;;;;;;4982878;28;20196;-62
2022/06/29 04:59:32;;;;;;;7.68;6.80;;;18.10;99.90;;;;;;4993286;28;20266;-63
2022/06/29 05:01:58;;;;;;;8.00;7.30;;;18.20;99.90;;;;;;4990720;28;20294;-62
2022/06/29 05:04:24;;;;;;;8.30;7.50;;;18.20;99.90;;;;;;4987278;28;20504;-62
2022/06/29 05:06:49;;;;;;;7.83;7.23;;;18.20;99.90;;;;;;4987889;28;20617;-62
2022/06/29 05:09:15;;;;;;;7.70;7.00;;;18.70;99.90;;;;;;4985958;28;20211;-62
2022/06/29 05:11:40;;;;;;;7.93;7.33;;;18.30;99.90;;;;;;4984126;28;20212;-63
2022/06/29 05:14:06;;;;;;;8.37;7.10;;;18.40;99.90;;;;;;4992800;28;20567;-62
2022/06/29 05:16:32;;;;;;;7.90;7.30;;;18.70;99.90;;;;;;4989595;28;20203;-63
2022/06/29 05:18:57;;;;;;;7.63;6.93;;;18.50;99.90;;;;;;4986951;28;20195;-62
2022/06/29 05:21:23;;;;;;;8.33;7.63;;;18.60;99.90;;;;;;4989184;28;20219;-62
2022/06/29 05:23:48;;;;;;;7.90;7.20;;;18.70;99.90;;;;;;4992551;28;20179;-62
2022/06/29 05:26:15;;;;;;;7.13;6.53;;;18.80;99.90;;;;;;4986447;28;20203;-62
2022/06/29 05:28:40;;;;;;;7.22;6.63;;;18.80;99.90;;;;;;4989802;28;20180;-62
2022/06/29 05:31:06;;;;;;;9.43;8.50;;;18.80;99.90;;;;;;4989931;28;20575;-63
2022/06/29 05:33:36;;;;;;;8.97;8.07;;;18.80;99.90;;;;;;4988147;28;20215;-63
2022/06/29 05:36:06;;;;;;;7.95;7.25;;;19.00;99.90;;;;;;4988098;28;20180;-61
2022/06/29 05:38:32;;;;;;;8.13;6.65;;;19.00;99.90;;;;;;4989379;28;20190;-61
2022/06/29 05:41:00;;;;;;;7.20;6.70;;;19.10;99.90;;;;;;4988815;28;20223;-62
2022/06/29 05:43:28;;;;;;;8.23;7.45;;;19.30;99.90;;;;;;4991306;28;20286;-62
2022/06/29 05:45:54;;;;;;;7.50;6.90;;;19.40;99.90;;;;;;4986753;28;20216;-61
2022/06/29 05:48:20;;;;;;;11.80;10.90;;;19.40;99.90;;;;;;4987003;28;20266;-61
2022/06/29 05:50:45;;;;;;;7.97;7.20;;;19.60;99.90;;;;;;4990124;28;20214;-61
2022/06/29 05:53:11;;;;;;;10.40;9.60;;;19.70;99.90;;;;;;4990093;28;20686;-62
2022/06/29 05:55:36;;;;;;;9.40;8.50;;;19.80;99.90;;;;;;4984442;28;20512;-67
2022/06/29 05:58:02;;;;;;;9.00;8.30;;;20.00;99.90;;;;;;4984314;28;20323;-68
2022/06/29 06:00:28;;;;;;;10.30;8.20;;;20.20;99.90;;;;;;4986045;28;20234;-70
2022/06/29 06:02:53;;;;;;;7.63;7.13;;;20.00;99.90;;;;;;4989074;28;20196;-70
2022/06/29 06:05:19;;;;;;;8.57;7.87;;;20.60;99.90;;;;;;4987584;28;20183;-69
2022/06/29 06:07:45;;;;;;;8.73;8.03;;;20.80;99.90;;;;;;4986843;28;20652;-69
2022/06/29 06:10:10;;;;;;;8.33;7.77;;;20.90;99.90;;;;;;4990794;28;20286;-72
2022/06/29 06:12:36;;;;;;;8.97;8.17;;;20.80;99.90;;;;;;4985323;28;20186;-73
2022/06/29 06:15:02;;;;;;;8.73;8.03;;;21.00;99.90;;;;;;4988966;28;20235;-73
2022/06/29 06:17:28;;;;;;;8.80;8.10;;;21.20;99.90;;;;;;4982922;28;20546;-73
2022/06/29 06:19:55;;;;;;;7.90;7.30;;;21.30;99.90;;;;;;4989109;28;20443;-73
2022/06/29 06:22:21;;;;;;;8.65;7.82;;;21.70;99.90;;;;;;4991646;28;20978;-73
2022/06/29 06:24:47;;;;;;;8.52;7.82;;;22.20;99.90;;;;;;4991086;28;20215;-72
2022/06/29 06:27:13;;;;;;;7.83;7.20;;;22.30;99.90;;;;;;4986757;28;20235;-72
2022/06/29 06:29:39;;;;;;;8.10;7.30;;;22.60;99.90;;;;;;4988256;28;20565;-72
2022/06/29 06:32:04;;;;;;;8.97;8.27;;;22.90;99.90;;;;;;4986018;28;20469;-67
2022/06/29 06:34:31;;;;;;;8.37;7.77;;;23.30;99.90;;;;;;4987354;28;20206;-68
2022/06/29 06:36:57;;;;;;;8.50;7.80;;;23.60;99.90;;;;;;4985461;28;20445;-68
2022/06/29 06:39:23;;;;;;;8.03;7.47;;;23.80;99.90;;;;;;4989893;28;20445;-67
2022/06/29 06:41:49;;;;;;;8.63;7.77;;;23.60;99.90;;;;;;4988198;28;20462;-68
2022/06/29 06:44:14;;;;;;;10.37;9.60;;;23.80;99.90;;;;;;4990358;28;20195;-67
2022/06/29 06:46:41;;;;;;;8.57;7.90;;;24.20;99.90;;;;;;4988327;28;20688;-67
2022/06/29 06:49:08;;;;;;;6.70;6.20;;;24.20;99.90;;;;;;4981006;28;20270;-68
2022/06/29 06:51:33;;;;;;;10.83;6.67;;;24.30;99.90;;;;;;4990272;28;20463;-67
2022/06/29 06:53:59;;;;;;;7.17;6.57;;;24.20;99.40;;;;;;4982537;28;20450;-68
2022/06/29 06:56:25;;;;;;;6.60;6.13;;;24.00;99.60;;;;;;4984336;28;20183;-68
2022/06/29 06:58:51;;;;;;;6.60;6.10;;;24.20;99.40;;;;;;4975758;28;20188;-70
2022/06/29 07:01:16;;;;;;;7.30;6.70;;;24.30;99.90;;;;;;4990769;28;20814;-70
2022/06/29 07:03:42;;;;;;;6.60;5.97;;;24.40;99.60;;;;;;4980852;28;20277;-72
2022/06/29 07:06:10;;;;;;;6.63;6.13;;;24.60;99.40;;;;;;4976782;28;20219;-69
2022/06/29 07:08:37;;;;;;;7.63;6.47;;;25.00;98.60;;;;;;4988309;28;20187;-69
2022/06/29 07:11:05;;;;;;;6.77;6.17;;;25.30;97.40;;;;;;4980412;28;20466;-69
2022/06/29 07:13:34;;;;;;;6.30;5.80;;;26.80;95.20;;;;;;4983123;28;20477;-69
2022/06/29 07:16:04;;;;;;;5.97;5.53;;;29.30;91.20;;;;;;4990761;28;20942;-72
2022/06/29 07:18:31;;;;;;;5.60;4.77;;;30.50;86.20;;;;;;4991113;28;20444;-70
2022/06/29 07:20:58;;;;;;;5.60;4.70;;;32.20;79.20;;;;;;4985114;28;20473;-70
2022/06/29 07:23:24;;;;;;;5.07;4.67;;;34.80;70.40;;;;;;4990290;28;20433;-69
2022/06/29 07:25:49;;;;;;;4.80;4.33;;;36.70;61.60;;;;;;4984256;28;20439;-66
2022/06/29 07:28:15;;;;;;;6.77;5.87;;;36.90;57.70;;;;;;4984536;28;20194;-66
2022/06/29 07:30:41;;;;;;;5.00;4.60;;;38.20;54.60;;;;;;4986354;28;20211;-71
2022/06/29 07:33:09;;;;;;;6.80;6.20;;;38.60;51.50;;;;;;4984523;28;20192;-70
2022/06/29 07:35:35;;;;;;;6.60;6.10;;;37.80;51.30;;;;;;4990572;28;20191;-69
2022/06/29 07:38:01;;;;;;;5.90;5.50;;;38.00;53.10;;;;;;4990089;28;20581;-70
2022/06/29 07:40:27;;;;;;;6.27;5.57;;;39.40;50.60;;;;;;4990699;28;20477;-70
2022/06/29 07:42:53;;;;;;;4.97;4.67;;;41.10;47.60;;;;;;4983525;28;20669;-72
2022/06/29 07:45:18;;;;;;;6.07;5.37;;;40.80;46.40;;;;;;4992976;28;20466;-71
2022/06/29 07:47:44;;;;;;;5.50;5.00;;;40.40;46.10;;;;;;4985782;28;20215;-72
2022/06/29 07:50:13;;;;;;;6.30;5.80;;;40.30;45.20;;;;;;4984066;28;20205;-71
2022/06/29 07:52:42;;;;;;;6.47;5.87;;;39.30;46.60;;;;;;4988650;28;20486;-71
2022/06/29 07:55:08;;;;;;;5.20;4.80;;;38.80;47.80;;;;;;4988490;28;20443;-73
2022/06/29 07:57:35;;;;;;;5.50;5.00;;;39.60;47.60;;;;;;4985953;28;20493;-73
2022/06/29 08:00:01;;;;;;;6.30;5.80;;;40.30;45.90;;;;;;4983297;28;20469;-76
2022/06/29 08:02:26;;;;;;;8.40;5.83;;;40.50;45.30;;;;;;4985398;28;21258;-71
2022/06/29 08:04:52;;;;;;;5.47;5.07;;;40.70;44.50;;;;;;4984833;28;20442;-75
2022/06/29 08:07:18;;;;;;;5.50;5.10;;;41.00;43.60;;;;;;4985150;28;20847;-74
2022/06/29 08:09:43;;;;;;;5.83;4.57;;;40.60;43.20;;;;;;4988956;28;20194;-74
2022/06/29 08:12:09;;;;;;;6.13;5.67;;;38.90;44.80;;;;;;4991602;28;20216;-78
2022/06/29 08:14:35;;;;;;;5.97;5.57;;;39.20;45.40;;;;;;4982862;28;20279;-75
2022/06/29 08:17:00;;;;;;;5.80;5.47;;;39.20;46.20;;;;;;4984745;28;20287;-74
2022/06/29 08:19:26;;;;;;;6.33;5.80;;;40.30;45.00;;;;;;4990813;28;20269;-74
2022/06/29 08:21:52;;;;;;;5.43;4.93;;;39.50;45.00;;;;;;4993999;28;20211;-72
2022/06/29 08:24:17;;;;;;;5.53;5.00;;;39.70;44.80;;;;;;4993412;28;20657;-73
2022/06/29 08:26:43;;;;;;;5.60;5.20;;;38.30;46.00;;;;;;4988634;28;20711;-72
2022/06/29 08:29:09;;;;;;;5.37;5.07;;;38.00;47.20;;;;;;4991620;28;20198;-72
2022/06/29 08:31:34;;;;;;;6.33;5.93;;;38.40;47.30;;;;;;4989468;28;20294;-72
2022/06/29 08:34:02;;;;;;;6.13;5.63;;;38.90;46.20;;;;;;4987068;28;20203;-71
2022/06/29 08:36:28;;;;;;;6.07;5.10;;;38.10;46.70;;;;;;4989458;28;20223;-73
2022/06/29 08:38:54;;;;;;;5.90;5.50;;;37.20;48.70;;;;;;4991174;28;20450;-71
2022/06/29 08:41:20;;;;;;;6.20;5.70;;;38.80;46.50;;;;;;4992394;28;20470;-68
2022/06/29 08:43:46;;;;;;;5.70;5.30;;;38.50;45.90;;;;;;4990628;28;20540;-67
2022/06/29 08:46:13;;;;;;;5.80;5.27;;;38.90;46.00;;;;;;4990424;28;20493;-64
2022/06/29 08:48:39;;;;;;;5.70;5.27;;;38.10;46.70;;;;;;4985689;28;20275;-67
2022/06/29 08:51:06;;;;;;;6.80;6.30;;;37.00;48.00;;;;;;4987040;28;21088;-64
2022/06/29 08:53:33;;;;;;;6.23;5.83;;;35.60;50.50;;;;;;4979447;28;20203;-65
2022/06/29 08:56:00;;;;;;;6.40;6.00;;;33.80;53.80;;;;;;4985657;28;20581;-65
2022/06/29 08:58:27;;;;;;;5.20;4.90;;;32.30;56.70;;;;;;4992188;28;20439;-65
2022/06/29 09:00:53;;;;;;;7.00;6.03;;;32.20;57.80;;;;;;4993455;28;20457;-65
2022/06/29 09:03:21;;;;;;;6.53;6.03;;;31.90;58.60;;;;;;4988303;28;20451;-65
2022/06/29 09:05:54;;;;;;;6.57;6.07;;;31.40;59.60;;;;;;4990316;28;20445;-64
2022/06/29 09:08:21;;;;;;;7.83;7.20;;;30.50;61.80;;;;;;4984830;28;20964;-65
2022/06/29 09:10:47;;;;;;;11.17;10.27;;;29.50;64.30;;;;;;4985639;28;20453;-65
2022/06/29 09:13:20;;;;;;;11.93;11.03;;;29.00;68.60;;;;;;4982294;28;20435;-66
2022/06/29 09:15:45;;;;;;;8.40;7.60;;;29.00;69.30;;;;;;4990652;28;20440;-65
2022/06/29 09:18:30;;;;;;;8.23;7.43;;;28.60;70.00;;;;;;4981395;28;20447;-66
2022/06/29 09:21:02;;;;;;;7.60;6.90;;;28.10;73.20;;;;;;4984615;28;20218;-64
2022/06/29 09:23:29;;;;;;;7.70;7.20;;;27.90;73.90;;;;;;4986146;28;20481;-66
2022/06/29 09:25:55;;;;;;;7.27;6.77;;;27.60;75.20;;;;;;4985117;28;20444;-66
2022/06/29 09:28:24;;;;;;;8.03;7.43;;;27.90;76.00;;;;;;4974291;28;21020;-64
2022/06/29 09:30:54;;;;;;;7.10;6.57;;;28.90;73.40;;;;;;4999912;28;20454;-64
2022/06/29 09:33:22;;;;;;;7.60;7.10;;;31.20;67.80;;;;;;4987134;28;20448;-65
2022/06/29 09:36:08;;;;;;;9.57;7.00;;;32.10;61.70;;;;;;4991201;28;20489;-66
2022/06/29 09:38:34;;;;;;;6.83;6.23;;;32.00;60.10;;;;;;4981785;28;20497;-66
2022/06/29 09:41:03;;;;;;;7.60;7.00;;;31.30;61.20;;;;;;4991236;28;20470;-65
2022/06/29 09:43:30;;;;;;;6.60;6.10;;;31.40;61.70;;;;;;4984412;28;20447;-66
2022/06/29 09:45:56;;;;;;;6.60;6.13;;;30.90;63.50;;;;;;4984269;28;20455;-67
2022/06/29 09:48:25;;;;;;;10.20;6.20;;;30.50;65.30;;;;;;4980396;28;20502;-64
2022/06/29 09:50:52;;;;;;;7.77;6.83;;;30.40;65.80;;;;;;4991171;28;20645;-62
2022/06/29 09:53:19;;;;;;;7.47;6.77;;;30.00;67.40;;;;;;4990736;28;20450;-62
2022/06/29 09:55:48;;;;;;;7.47;6.97;;;29.40;68.00;;;;;;4989929;28;20475;-64
2022/06/29 09:58:19;;;;;;;6.40;6.00;;;29.00;70.00;;;;;;4981566;28;20534;-65
2022/06/29 10:03:31;;;;;;;8.00;7.40;;;28.60;72.70;;;;;;4983561;28;20498;-64
2022/06/29 10:06:08;;;;;;;8.73;6.90;;;28.30;74.80;;;;;;4984713;28;20930;-64
2022/06/29 10:08:35;;;;;;;7.10;6.40;;;28.10;75.60;;;;;;4987646;28;20540;-63
2022/06/29 10:14:04;;;;;;;6.60;6.10;;;27.50;77.40;;;;;;4989131;28;20873;-63
2022/06/29 10:16:41;;;;;;;6.90;6.30;;;27.40;78.70;;;;;;4989550;28;20465;-63
2022/06/29 10:19:51;;;;;;;6.40;5.90;;;27.30;79.20;;;;;;4979363;28;20446;-62
2022/06/29 10:22:17;;;;;;;7.20;6.60;;;27.40;79.20;;;;;;4946517;28;20520;-62
2022/06/29 10:25:02;;;;;;;7.30;6.27;;;27.40;80.00;;;;;;4983973;28;20451;-62
2022/06/29 10:27:28;;;;;;;6.37;5.87;;;27.60;79.60;;;;;;4985301;28;20305;-61
2022/06/29 10:30:20;;;;;;;7.10;5.63;;;27.70;79.60;;;;;;4981617;28;20439;-62
2022/06/29 10:32:47;;;;;;;7.70;5.63;;;27.70;79.10;;;;;;4985981;28;20740;-62
2022/06/29 10:35:12;;;;;;;5.70;5.30;;;27.80;79.70;;;;;;4984063;28;20830;-63
2022/06/29 10:37:52;;;;;;;6.57;6.07;;;27.80;79.60;;;;;;4984378;28;20463;-63
2022/06/29 10:40:23;;;;;;;6.53;6.00;;;27.80;78.90;;;;;;4987400;28;20195;-63
2022/06/29 10:45:38;;;;;;;8.27;7.57;;;27.80;78.40;;;;;;4985693;28;20454;-63
2022/06/29 10:48:07;;;;;;;7.83;7.03;;;27.50;80.10;;;;;;4980193;28;20478;-63
2022/06/29 10:50:38;;;;;;;6.80;6.30;;;27.90;79.80;;;;;;4988109;28;20493;-63
2022/06/29 10:53:15;;;;;;;9.53;8.63;;;28.30;78.90;;;;;;4980492;28;20497;-69
2022/06/29 10:55:44;;;;;;;6.43;5.80;;;27.90;79.00;;;;;;4983927;28;20439;-64
2022/06/29 10:58:11;;;;;;;6.17;5.73;;;28.00;79.50;;;;;;4982529;28;20458;-64
2022/06/29 11:00:42;;;;;;;6.50;5.90;;;28.30;78.90;;;;;;4987941;28;20893;-67
2022/06/29 11:03:10;;;;;;;7.00;6.50;;;28.20;78.50;;;;;;4989435;28;20439;-69
2022/06/29 11:05:36;;;;;;;8.00;7.30;;;28.20;78.80;;;;;;4987853;28;20447;-68
2022/06/29 11:13:25;;;;;;;6.83;6.23;;;28.10;78.70;;;;;;4988367;28;20430;-70
2022/06/29 11:15:53;;;;;;;6.10;5.67;;;28.40;79.10;;;;;;4983390;28;20443;-70
2022/06/29 11:18:29;;;;;;;10.60;6.67;;;28.30;78.90;;;;;;4980733;28;20457;-69
2022/06/29 11:21:02;;;;;;;5.90;5.50;;;28.30;78.80;;;;;;4986889;28;20462;-70
2022/06/29 11:23:30;;;;;;;6.07;5.60;;;28.40;77.10;;;;;;4989994;28;20437;-68
2022/06/29 11:25:56;;;;;;;6.57;5.80;;;28.40;77.20;;;;;;4985511;28;20500;-69
2022/06/29 11:28:30;;;;;;;6.97;6.37;;;28.40;77.90;;;;;;4983534;28;20529;-71
2022/06/29 11:31:04;;;;;;;8.23;7.30;;;28.30;77.80;;;;;;4990732;28;21027;-72
2022/06/29 11:33:32;;;;;;;7.03;6.40;;;28.70;78.10;;;;;;4988681;28;20436;-73
2022/06/29 11:36:10;;;;;;;5.90;5.40;;;29.10;76.30;;;;;;4985267;28;21135;-70
2022/06/29 11:38:40;;;;;;;6.00;5.57;;;29.10;74.80;;;;;;4987568;28;20426;-70
2022/06/29 11:41:20;;;;;;;6.53;6.00;;;28.90;75.60;;;;;;4986035;28;20461;-73
2022/06/29 11:43:57;;;;;;;6.00;5.30;;;29.20;75.70;;;;;;4973046;28;20946;-71
2022/06/29 11:46:24;;;;;;;5.90;5.37;;;29.40;74.50;;;;;;4987284;28;20474;-70
2022/06/29 11:51:36;;;;;;;5.70;5.10;;;30.20;71.80;;;;;;4988271;28;20515;-72
2022/06/29 11:54:08;;;;;;;6.97;4.70;;;30.30;71.90;;;;;;4993993;28;20519;-71
2022/06/29 11:56:34;;;;;;;5.93;5.40;;;30.30;72.50;;;;;;4989210;28;20456;-72
2022/06/29 11:59:05;;;;;;;7.40;5.57;;;30.40;70.80;;;;;;4992802;28;20930;-65
2022/06/29 12:01:30;;;;;;;5.43;5.03;;;30.10;71.40;;;;;;4990938;28;20612;-72
2022/06/29 12:03:58;;;;;;;5.70;5.20;;;29.60;72.30;;;;;;4987085;28;20455;-63
2022/06/29 12:06:26;;;;;;;5.60;5.20;;;29.70;72.70;;;;;;4983230;28;20589;-63
2022/06/29 12:08:53;;;;;;;4.90;4.40;;;29.70;73.00;;;;;;4986972;28;20447;-63
2022/06/29 12:11:20;;;;;;;5.57;5.07;;;29.80;71.30;;;;;;4988678;28;20560;-63
2022/06/29 12:13:49;;;;;;;5.70;5.20;;;29.60;71.30;;;;;;4992010;28;20449;-63
2022/06/29 12:16:15;;;;;;;5.10;4.70;;;29.60;72.20;;;;;;4987785;28;20939;-63
2022/06/29 12:18:41;;;;;;;4.77;4.47;;;29.30;71.40;;;;;;4986202;28;20817;-63
2022/06/29 12:21:08;;;;;;;4.70;4.40;;;29.30;71.60;;;;;;4984783;28;20478;-63
2022/06/29 12:23:34;;;;;;;5.17;4.67;;;29.40;73.10;;;;;;4987012;28;20443;-63
2022/06/29 12:26:00;;;;;;;5.80;5.17;;;29.40;72.90;;;;;;4990519;28;20785;-63
2022/06/29 12:28:26;;;;;;;5.60;5.20;;;29.20;73.30;;;;;;4986422;28;20465;-63
2022/06/29 12:30:52;;;;;;;5.80;5.30;;;28.80;74.20;;;;;;4988906;28;20615;-63
2022/06/29 12:33:19;;;;;;;5.60;5.30;;;28.90;76.30;;;;;;4988186;28;20918;-63
2022/06/29 12:35:44;;;;;;;6.20;5.70;;;28.80;77.50;;;;;;4989223;28;20543;-63
2022/06/29 12:38:10;;;;;;;5.40;4.93;;;28.40;76.10;;;;;;4991122;28;20454;-63
2022/06/29 12:40:36;;;;;;;6.10;5.60;;;28.40;77.10;;;;;;4988307;28;20216;-63
2022/06/29 12:43:02;;;;;;;5.43;5.00;;;28.00;77.50;;;;;;4989394;28;20199;-63
2022/06/29 12:45:28;;;;;;;6.57;5.93;;;27.90;78.60;;;;;;4992197;28;20191;-68
2022/06/29 12:47:54;;;;;;;5.67;5.20;;;27.90;77.60;;;;;;4987622;28;20466;-71
2022/06/29 12:50:20;;;;;;;5.90;5.40;;;28.00;78.30;;;;;;4984427;28;20681;-70
2022/06/29 12:52:50;;;;;;;7.00;5.20;;;28.20;77.00;;;;;;4990564;28;20199;-70
2022/06/29 12:55:20;;;;;;;6.20;4.67;;;28.10;77.40;;;;;;4990578;28;20447;-68
2022/06/29 12:57:46;;;;;;;5.37;4.90;;;28.20;76.90;;;;;;4980525;28;20452;-60
2022/06/29 13:00:13;;;;;;;11.00;8.60;;;28.40;76.90;;;;;;4981394;28;20444;-67
2022/06/29 13:02:39;;;;;;;7.07;6.47;;;28.20;77.40;;;;;;4989883;28;20804;-69
2022/06/29 13:05:07;;;;;;;5.03;4.60;;;28.30;77.40;;;;;;4984408;28;20455;-70
2022/06/29 13:07:33;;;;;;;12.23;8.57;;;28.30;77.90;;;;;;4990306;28;20470;-67
2022/06/29 13:09:59;;;;;;;4.93;4.43;;;28.20;78.20;;;;;;4988057;28;20497;-69